sensor_id;sensor_type;location;lat;lon;timestamp;pressure;altitude;pressure_sealevel;temperature;humidity
65756;BME280;52489;47.502;18.940;2022-10-31T00:00:54;98833.38;;;10.52;100.00
65756;BME280;52489;47.502;18.940;2022-10-31T00:01:57;98836.28;;;10.51;100.00
65756;BME280;52489;47.502;18.940;2022-10-31T00:03:00;98825.06;;;10.45;100.00
65756;BME280;52489;47.502;18.940;2022-10-31T00:04:04;98826.34;;;10.47;100.00
65756;BME280;52489;47.502;18.940;2022-10-31T00:05:08;98828.97;;;10.47;100.00
65756;BME280;52489;47.502;18.940;2022-10-31T00:06:11;98825.84;;;10.45;100.00
65756;BME280;52489;47.502;18.940;2022-10-31T00:07:14;98822.13;;;10.52;100.00
65756;BME280;52489;47.502;18.940;2022-10-31T00:08:17;98825.53;;;10.52;100.00
65756;BME280;52489;47.502;18.940;2022-10-31T00:09:20;98823.12;;;10.56;100.00
65756;BME280;52489;47.502;18.940;2022-10-31T00:10:23;98824.19;;;10.55;100.00
65756;BME280;52489;47.502;18.940;2022-10-31T00:11:27;98822.28;;;10.65;100.00
65756;BME280;52489;47.502;18.940;2022-10-31T00:12:30;98822.72;;;10.73;100.00
65756;BME280;52489;47.502;18.940;2022-10-31T00:13:33;98823.69;;;10.53;100.00
65756;BME280;52489;47.502;18.940;2022-10-31T00:14:35;98823.25;;;10.40;100.00
65756;BME280;52489;47.502;18.940;2022-10-31T00:15:39;98822.31;;;10.60;100.00
65756;BME280;52489;47.502;18.940;2022-10-31T00:16:42;98824.69;;;10.62;100.00
65756;BME280;52489;47.502;18.940;2022-10-31T00:17:45;98825.03;;;10.50;100.00
65756;BME280;52489;47.502;18.940;2022-10-31T00:18:52;98825.47;;;10.57;100.00
65756;BME280;52489;47.502;18.940;2022-10-31T00:19:55;98821.25;;;10.61;100.00
65756;BME280;52489;47.502;18.940;2022-10-31T00:21:02;98820.63;;;10.75;100.00
65756;BME280;52489;47.502;18.940;2022-10-31T00:22:06;98820.28;;;10.52;100.00
65756;BME280;52489;47.502;18.940;2022-10-31T00:23:09;98826.59;;;10.51;100.00
65756;BME280;52489;47.502;18.940;2022-10-31T00:24:13;98817.25;;;10.40;100.00
65756;BME280;52489;47.502;18.940;2022-10-31T00:25:16;98817.66;;;10.52;100.00
65756;BME280;52489;47.502;18.940;2022-10-31T00:26:19;98812.56;;;10.37;100.00
65756;BME280;52489;47.502;18.940;2022-10-31T00:27:22;98818.50;;;10.47;100.00
65756;BME280;52489;47.502;18.940;2022-10-31T00:28:25;98806.72;;;10.45;100.00
65756;BME280;52489;47.502;18.940;2022-10-31T00:29:28;98804.87;;;10.45;100.00
65756;BME280;52489;47.502;18.940;2022-10-31T00:30:31;98810.09;;;10.51;100.00
65756;BME280;52489;47.502;18.940;2022-10-31T00:31:34;98810.03;;;10.56;100.00
65756;BME280;52489;47.502;18.940;2022-10-31T00:32:37;98814.03;;;10.48;100.00
65756;BME280;52489;47.502;18.940;2022-10-31T00:33:41;98808.06;;;10.42;100.00
65756;BME280;52489;47.502;18.940;2022-10-31T00:34:44;98805.75;;;10.36;100.00
65756;BME280;52489;47.502;18.940;2022-10-31T00:35:50;98806.97;;;10.48;100.00
65756;BME280;52489;47.502;18.940;2022-10-31T00:36:53;98803.63;;;10.38;100.00
65756;BME280;52489;47.502;18.940;2022-10-31T00:37:56;98810.22;;;10.35;100.00
65756;BME280;52489;47.502;18.940;2022-10-31T00:38:59;98806.44;;;10.46;100.00
65756;BME280;52489;47.502;18.940;2022-10-31T00:40:02;98809.69;;;10.33;100.00
65756;BME280;52489;47.502;18.940;2022-10-31T00:41:05;98807.41;;;10.21;100.00
65756;BME280;52489;47.502;18.940;2022-10-31T00:42:08;98807.44;;;10.16;100.00
65756;BME280;52489;47.502;18.940;2022-10-31T00:43:11;98807.34;;;10.32;100.00
65756;BME280;52489;47.502;18.940;2022-10-31T00:44:18;98800.31;;;10.27;100.00
65756;BME280;52489;47.502;18.940;2022-10-31T00:45:21;98803.94;;;10.26;100.00
65756;BME280;52489;47.502;18.940;2022-10-31T00:46:24;98797.25;;;10.15;100.00
65756;BME280;52489;47.502;18.940;2022-10-31T00:47:27;98806.09;;;10.19;100.00
65756;BME280;52489;47.502;18.940;2022-10-31T00:48:30;98801.94;;;10.18;100.00
65756;BME280;52489;47.502;18.940;2022-10-31T00:49:33;98797.72;;;10.17;100.00
65756;BME280;52489;47.502;18.940;2022-10-31T00:50:37;98799.88;;;10.15;100.00
65756;BME280;52489;47.502;18.940;2022-10-31T00:51:39;98787.75;;;10.24;100.00
65756;BME280;52489;47.502;18.940;2022-10-31T00:52:42;98792.47;;;10.22;100.00
65756;BME280;52489;47.502;18.940;2022-10-31T00:53:49;98795.03;;;10.32;100.00
65756;BME280;52489;47.502;18.940;2022-10-31T00:54:52;98803.06;;;10.41;100.00
65756;BME280;52489;47.502;18.940;2022-10-31T00:55:55;98798.47;;;10.28;100.00
65756;BME280;52489;47.502;18.940;2022-10-31T00:56:58;98796.25;;;10.45;100.00
65756;BME280;52489;47.502;18.940;2022-10-31T00:58:01;98794.19;;;10.42;100.00
65756;BME280;52489;47.502;18.940;2022-10-31T00:59:05;98799.44;;;10.37;100.00
65756;BME280;52489;47.502;18.940;2022-10-31T01:00:08;98801.28;;;10.36;100.00
65756;BME280;52489;47.502;18.940;2022-10-31T01:01:11;98793.69;;;10.35;100.00
65756;BME280;52489;47.502;18.940;2022-10-31T01:02:14;98799.75;;;10.35;100.00
65756;BME280;52489;47.502;18.940;2022-10-31T01:03:18;98795.78;;;10.38;100.00
65756;BME280;52489;47.502;18.940;2022-10-31T01:04:21;98800.75;;;10.39;100.00
65756;BME280;52489;47.502;18.940;2022-10-31T01:05:24;98796.09;;;10.26;100.00
65756;BME280;52489;47.502;18.940;2022-10-31T01:06:27;98799.56;;;10.16;100.00
65756;BME280;52489;47.502;18.940;2022-10-31T01:07:30;98806.63;;;10.21;100.00
65756;BME280;52489;47.502;18.940;2022-10-31T01:08:34;98799.53;;;10.21;100.00
65756;BME280;52489;47.502;18.940;2022-10-31T01:09:37;98801.31;;;10.31;100.00
65756;BME280;52489;47.502;18.940;2022-10-31T01:10:40;98806.19;;;10.09;100.00
65756;BME280;52489;47.502;18.940;2022-10-31T01:11:43;98798.38;;;9.98;100.00
65756;BME280;52489;47.502;18.940;2022-10-31T01:12:48;98803.09;;;9.96;100.00
65756;BME280;52489;47.502;18.940;2022-10-31T01:13:52;98799.31;;;10.18;100.00
65756;BME280;52489;47.502;18.940;2022-10-31T01:14:56;98794.78;;;10.29;100.00
65756;BME280;52489;47.502;18.940;2022-10-31T01:15:59;98790.91;;;10.21;100.00
65756;BME280;52489;47.502;18.940;2022-10-31T01:17:04;98791.91;;;10.30;100.00
65756;BME280;52489;47.502;18.940;2022-10-31T01:18:07;98788.44;;;10.40;100.00
65756;BME280;52489;47.502;18.940;2022-10-31T01:19:10;98797.53;;;10.47;100.00
65756;BME280;52489;47.502;18.940;2022-10-31T01:20:14;98790.97;;;10.50;100.00
65756;BME280;52489;47.502;18.940;2022-10-31T01:21:20;98795.69;;;10.48;100.00
65756;BME280;52489;47.502;18.940;2022-10-31T01:22:24;98788.63;;;10.48;100.00
65756;BME280;52489;47.502;18.940;2022-10-31T01:23:27;98789.78;;;10.32;100.00
65756;BME280;52489;47.502;18.940;2022-10-31T01:24:31;98788.28;;;10.21;100.00
65756;BME280;52489;47.502;18.940;2022-10-31T01:25:34;98793.62;;;10.06;100.00
65756;BME280;52489;47.502;18.940;2022-10-31T01:26:37;98794.88;;;10.13;100.00
65756;BME280;52489;47.502;18.940;2022-10-31T01:27:40;98786.25;;;10.13;100.00
65756;BME280;52489;47.502;18.940;2022-10-31T01:28:51;98790.50;;;10.09;100.00
65756;BME280;52489;47.502;18.940;2022-10-31T01:29:54;98791.53;;;10.08;100.00
65756;BME280;52489;47.502;18.940;2022-10-31T01:31:00;98792.06;;;10.05;100.00
65756;BME280;52489;47.502;18.940;2022-10-31T01:32:04;98793.69;;;10.00;100.00
65756;BME280;52489;47.502;18.940;2022-10-31T01:33:07;98789.47;;;9.99;100.00
65756;BME280;52489;47.502;18.940;2022-10-31T01:34:14;98780.63;;;9.90;100.00
65756;BME280;52489;47.502;18.940;2022-10-31T01:35:17;98784.00;;;9.96;100.00
65756;BME280;52489;47.502;18.940;2022-10-31T01:36:23;98781.69;;;9.89;100.00
65756;BME280;52489;47.502;18.940;2022-10-31T01:37:27;98783.03;;;9.82;100.00
65756;BME280;52489;47.502;18.940;2022-10-31T01:38:33;98776.25;;;9.80;100.00
65756;BME280;52489;47.502;18.940;2022-10-31T01:39:36;98786.63;;;9.96;100.00
65756;BME280;52489;47.502;18.940;2022-10-31T01:40:39;98782.16;;;9.96;100.00
65756;BME280;52489;47.502;18.940;2022-10-31T01:41:45;98781.34;;;10.06;100.00
65756;BME280;52489;47.502;18.940;2022-10-31T01:42:48;98782.03;;;10.17;100.00
65756;BME280;52489;47.502;18.940;2022-10-31T01:43:59;98784.34;;;10.23;100.00
65756;BME280;52489;47.502;18.940;2022-10-31T01:45:03;98783.53;;;10.28;100.00
65756;BME280;52489;47.502;18.940;2022-10-31T01:46:07;98785.12;;;10.24;100.00
65756;BME280;52489;47.502;18.940;2022-10-31T01:47:17;98785.47;;;10.12;100.00
65756;BME280;52489;47.502;18.940;2022-10-31T01:48:25;98783.13;;;10.11;100.00
65756;BME280;52489;47.502;18.940;2022-10-31T01:49:47;98779.66;;;10.20;100.00
65756;BME280;52489;47.502;18.940;2022-10-31T01:50:51;98777.09;;;10.10;100.00
65756;BME280;52489;47.502;18.940;2022-10-31T01:52:01;98779.50;;;10.07;100.00
65756;BME280;52489;47.502;18.940;2022-10-31T01:53:06;98780.91;;;9.94;100.00
65756;BME280;52489;47.502;18.940;2022-10-31T01:54:12;98780.09;;;9.93;100.00
65756;BME280;52489;47.502;18.940;2022-10-31T01:55:21;98776.47;;;9.89;100.00
65756;BME280;52489;47.502;18.940;2022-10-31T01:56:32;98781.97;;;9.88;100.00
65756;BME280;52489;47.502;18.940;2022-10-31T01:57:40;98784.25;;;9.99;100.00
65756;BME280;52489;47.502;18.940;2022-10-31T01:58:46;98775.81;;;10.08;100.00
65756;BME280;52489;47.502;18.940;2022-10-31T01:59:51;98782.88;;;10.07;100.00
65756;BME280;52489;47.502;18.940;2022-10-31T02:01:00;98784.97;;;10.10;100.00
65756;BME280;52489;47.502;18.940;2022-10-31T02:02:10;98773.28;;;9.97;100.00
65756;BME280;52489;47.502;18.940;2022-10-31T02:03:13;98777.56;;;9.83;100.00
65756;BME280;52489;47.502;18.940;2022-10-31T02:04:18;98777.06;;;9.76;100.00
65756;BME280;52489;47.502;18.940;2022-10-31T02:05:24;98772.63;;;9.76;100.00
65756;BME280;52489;47.502;18.940;2022-10-31T02:06:38;98784.13;;;9.75;100.00
65756;BME280;52489;47.502;18.940;2022-10-31T02:09:30;98773.56;;;9.91;100.00
65756;BME280;52489;47.502;18.940;2022-10-31T02:10:36;98779.28;;;9.98;100.00
65756;BME280;52489;47.502;18.940;2022-10-31T02:11:40;98766.75;;;9.95;100.00
65756;BME280;52489;47.502;18.940;2022-10-31T02:12:44;98774.91;;;9.88;100.00
65756;BME280;52489;47.502;18.940;2022-10-31T02:13:47;98773.06;;;9.89;100.00
65756;BME280;52489;47.502;18.940;2022-10-31T02:14:50;98777.00;;;9.91;100.00
65756;BME280;52489;47.502;18.940;2022-10-31T02:15:56;98786.59;;;10.01;100.00
65756;BME280;52489;47.502;18.940;2022-10-31T02:16:59;98770.91;;;9.96;100.00
65756;BME280;52489;47.502;18.940;2022-10-31T02:18:03;98771.22;;;9.89;100.00
65756;BME280;52489;47.502;18.940;2022-10-31T02:19:08;98770.91;;;10.01;100.00
65756;BME280;52489;47.502;18.940;2022-10-31T02:20:24;98772.44;;;10.02;100.00
65756;BME280;52489;47.502;18.940;2022-10-31T02:22:41;98770.16;;;9.95;100.00
65756;BME280;52489;47.502;18.940;2022-10-31T02:24:07;98768.59;;;9.94;100.00
65756;BME280;52489;47.502;18.940;2022-10-31T02:27:47;98761.63;;;9.79;100.00
65756;BME280;52489;47.502;18.940;2022-10-31T02:30:11;98769.16;;;9.86;100.00
65756;BME280;52489;47.502;18.940;2022-10-31T02:31:52;98765.00;;;9.85;100.00
65756;BME280;52489;47.502;18.940;2022-10-31T02:34:40;98771.50;;;9.88;100.00
65756;BME280;52489;47.502;18.940;2022-10-31T02:36:04;98777.88;;;9.76;100.00
65756;BME280;52489;47.502;18.940;2022-10-31T02:37:17;98770.56;;;9.73;100.00
65756;BME280;52489;47.502;18.940;2022-10-31T02:39:26;98771.56;;;9.77;100.00
65756;BME280;52489;47.502;18.940;2022-10-31T02:40:32;98772.63;;;9.76;100.00
65756;BME280;52489;47.502;18.940;2022-10-31T02:41:49;98775.69;;;9.89;100.00
65756;BME280;52489;47.502;18.940;2022-10-31T02:44:49;98780.75;;;9.70;100.00
65756;BME280;52489;47.502;18.940;2022-10-31T02:47:16;98772.56;;;9.87;100.00
65756;BME280;52489;47.502;18.940;2022-10-31T02:48:26;98776.81;;;9.77;100.00
65756;BME280;52489;47.502;18.940;2022-10-31T02:49:38;98774.84;;;9.93;100.00
65756;BME280;52489;47.502;18.940;2022-10-31T02:50:48;98785.66;;;9.82;100.00
65756;BME280;52489;47.502;18.940;2022-10-31T02:51:54;98788.59;;;9.75;100.00
65756;BME280;52489;47.502;18.940;2022-10-31T02:52:57;98786.19;;;9.84;100.00
65756;BME280;52489;47.502;18.940;2022-10-31T02:54:00;98784.19;;;9.70;100.00
65756;BME280;52489;47.502;18.940;2022-10-31T02:56:35;98788.38;;;9.61;100.00
65756;BME280;52489;47.502;18.940;2022-10-31T02:57:40;98788.91;;;9.63;100.00
65756;BME280;52489;47.502;18.940;2022-10-31T02:58:53;98785.75;;;9.66;100.00
65756;BME280;52489;47.502;18.940;2022-10-31T03:00:01;98780.50;;;9.71;100.00
65756;BME280;52489;47.502;18.940;2022-10-31T03:02:38;98784.19;;;9.70;100.00
65756;BME280;52489;47.502;18.940;2022-10-31T03:06:35;98779.22;;;9.69;100.00
65756;BME280;52489;47.502;18.940;2022-10-31T03:08:08;98786.53;;;9.67;100.00
65756;BME280;52489;47.502;18.940;2022-10-31T03:11:08;98779.22;;;9.69;100.00
65756;BME280;52489;47.502;18.940;2022-10-31T03:15:27;98777.12;;;9.66;100.00
65756;BME280;52489;47.502;18.940;2022-10-31T03:18:03;98783.78;;;9.92;100.00
65756;BME280;52489;47.502;18.940;2022-10-31T03:19:22;98787.94;;;9.93;100.00
65756;BME280;52489;47.502;18.940;2022-10-31T03:20:58;98792.62;;;9.96;100.00
65756;BME280;52489;47.502;18.940;2022-10-31T03:22:25;98786.84;;;9.99;100.00
65756;BME280;52489;47.502;18.940;2022-10-31T03:23:35;98790.66;;;9.78;100.00
65756;BME280;52489;47.502;18.940;2022-10-31T03:24:39;98790.31;;;9.95;100.00
65756;BME280;52489;47.502;18.940;2022-10-31T03:25:43;98794.66;;;10.10;100.00
65756;BME280;52489;47.502;18.940;2022-10-31T03:26:51;98795.38;;;10.20;100.00
65756;BME280;52489;47.502;18.940;2022-10-31T03:27:56;98801.69;;;10.14;100.00
65756;BME280;52489;47.502;18.940;2022-10-31T03:29:10;98783.97;;;10.01;100.00
65756;BME280;52489;47.502;18.940;2022-10-31T03:30:16;98795.19;;;10.12;100.00
65756;BME280;52489;47.502;18.940;2022-10-31T03:31:24;98797.81;;;10.07;100.00
65756;BME280;52489;47.502;18.940;2022-10-31T03:32:33;98801.09;;;9.88;100.00
65756;BME280;52489;47.502;18.940;2022-10-31T03:33:38;98801.34;;;9.87;100.00
65756;BME280;52489;47.502;18.940;2022-10-31T03:34:44;98792.97;;;9.85;100.00
65756;BME280;52489;47.502;18.940;2022-10-31T03:35:51;98804.78;;;9.82;100.00
65756;BME280;52489;47.502;18.940;2022-10-31T03:36:59;98807.94;;;9.79;100.00
65756;BME280;52489;47.502;18.940;2022-10-31T03:38:05;98789.56;;;9.89;100.00
65756;BME280;52489;47.502;18.940;2022-10-31T03:39:13;98791.28;;;10.04;100.00
65756;BME280;52489;47.502;18.940;2022-10-31T03:40:19;98796.72;;;10.13;100.00
65756;BME280;52489;47.502;18.940;2022-10-31T03:41:25;98799.91;;;10.10;100.00
65756;BME280;52489;47.502;18.940;2022-10-31T03:42:33;98799.53;;;10.21;100.00
65756;BME280;52489;47.502;18.940;2022-10-31T03:43:41;98800.34;;;10.17;100.00
65756;BME280;52489;47.502;18.940;2022-10-31T03:44:57;98785.91;;;10.24;100.00
65756;BME280;52489;47.502;18.940;2022-10-31T03:46:02;98796.37;;;10.24;100.00
65756;BME280;52489;47.502;18.940;2022-10-31T03:47:06;98796.37;;;10.24;100.00
65756;BME280;52489;47.502;18.940;2022-10-31T03:48:09;98790.41;;;10.19;100.00
65756;BME280;52489;47.502;18.940;2022-10-31T03:49:13;98791.91;;;10.30;100.00
65756;BME280;52489;47.502;18.940;2022-10-31T03:50:16;98792.22;;;10.23;100.00
65756;BME280;52489;47.502;18.940;2022-10-31T03:51:25;98794.84;;;10.18;100.00
65756;BME280;52489;47.502;18.940;2022-10-31T03:52:48;98798.06;;;10.05;100.00
65756;BME280;52489;47.502;18.940;2022-10-31T03:54:01;98799.00;;;9.85;100.00
65756;BME280;52489;47.502;18.940;2022-10-31T03:56:49;98806.81;;;9.90;100.00
65756;BME280;52489;47.502;18.940;2022-10-31T03:58:29;98807.22;;;10.08;100.00
65756;BME280;52489;47.502;18.940;2022-10-31T03:59:39;98808.47;;;10.20;100.00
65756;BME280;52489;47.502;18.940;2022-10-31T04:00:44;98805.00;;;10.30;100.00
65756;BME280;52489;47.502;18.940;2022-10-31T04:01:52;98806.84;;;10.24;100.00
65756;BME280;52489;47.502;18.940;2022-10-31T04:03:19;98805.91;;;10.10;100.00
65756;BME280;52489;47.502;18.940;2022-10-31T04:04:25;98800.28;;;9.88;100.00
65756;BME280;52489;47.502;18.940;2022-10-31T04:05:29;98797.19;;;9.80;100.00
65756;BME280;52489;47.502;18.940;2022-10-31T04:06:36;98803.38;;;10.00;100.00
65756;BME280;52489;47.502;18.940;2022-10-31T04:07:44;98797.50;;;10.13;100.00
65756;BME280;52489;47.502;18.940;2022-10-31T04:08:56;98796.69;;;10.18;100.00
65756;BME280;52489;47.502;18.940;2022-10-31T04:10:02;98805.59;;;10.17;100.00
65756;BME280;52489;47.502;18.940;2022-10-31T04:11:08;98803.41;;;9.95;100.00
65756;BME280;52489;47.502;18.940;2022-10-31T04:12:14;98802.31;;;10.01;100.00
65756;BME280;52489;47.502;18.940;2022-10-31T04:13:23;98801.72;;;10.09;100.00
65756;BME280;52489;47.502;18.940;2022-10-31T04:14:29;98804.09;;;10.06;100.00
65756;BME280;52489;47.502;18.940;2022-10-31T04:15:35;98800.41;;;10.12;100.00
65756;BME280;52489;47.502;18.940;2022-10-31T04:16:41;98805.91;;;10.10;100.00
65756;BME280;52489;47.502;18.940;2022-10-31T04:17:47;98807.53;;;10.01;100.00
65756;BME280;52489;47.502;18.940;2022-10-31T04:18:52;98801.53;;;10.00;100.00
65756;BME280;52489;47.502;18.940;2022-10-31T04:19:59;98809.31;;;10.06;100.00
65756;BME280;52489;47.502;18.940;2022-10-31T04:21:05;98803.94;;;10.26;100.00
65756;BME280;52489;47.502;18.940;2022-10-31T04:22:09;98815.50;;;10.30;100.00
65756;BME280;52489;47.502;18.940;2022-10-31T04:23:20;98794.31;;;10.21;100.00
65756;BME280;52489;47.502;18.940;2022-10-31T04:24:25;98805.47;;;9.98;100.00
65756;BME280;52489;47.502;18.940;2022-10-31T04:25:28;98802.00;;;10.08;100.00
65756;BME280;52489;47.502;18.940;2022-10-31T04:26:31;98811.37;;;10.14;100.00
65756;BME280;52489;47.502;18.940;2022-10-31T04:27:34;98812.66;;;10.16;100.00
65756;BME280;52489;47.502;18.940;2022-10-31T04:28:38;98807.94;;;10.18;100.00
65756;BME280;52489;47.502;18.940;2022-10-31T04:29:41;98811.81;;;10.31;100.00
65756;BME280;52489;47.502;18.940;2022-10-31T04:30:49;98817.81;;;10.32;100.00
65756;BME280;52489;47.502;18.940;2022-10-31T04:31:52;98812.13;;;10.19;100.00
65756;BME280;52489;47.502;18.940;2022-10-31T04:32:55;98816.03;;;10.22;100.00
65756;BME280;52489;47.502;18.940;2022-10-31T04:33:59;98817.91;;;10.16;100.00
65756;BME280;52489;47.502;18.940;2022-10-31T04:35:01;98817.94;;;10.11;100.00
65756;BME280;52489;47.502;18.940;2022-10-31T04:36:09;98816.12;;;10.12;100.00
65756;BME280;52489;47.502;18.940;2022-10-31T04:37:12;98824.19;;;10.15;100.00
65756;BME280;52489;47.502;18.940;2022-10-31T04:38:14;98821.03;;;10.18;100.00
65756;BME280;52489;47.502;18.940;2022-10-31T04:39:17;98824.97;;;10.16;100.00
65756;BME280;52489;47.502;18.940;2022-10-31T04:40:28;98819.66;;;10.26;100.00
65756;BME280;52489;47.502;18.940;2022-10-31T04:41:31;98823.62;;;10.23;100.00
65756;BME280;52489;47.502;18.940;2022-10-31T04:42:34;98823.62;;;10.23;100.00
65756;BME280;52489;47.502;18.940;2022-10-31T04:43:36;98821.00;;;10.23;100.00
65756;BME280;52489;47.502;18.940;2022-10-31T04:44:40;98825.53;;;10.13;100.00
65756;BME280;52489;47.502;18.940;2022-10-31T04:45:42;98829.97;;;10.12;100.00
65756;BME280;52489;47.502;18.940;2022-10-31T04:46:46;98825.44;;;10.23;100.00
65756;BME280;52489;47.502;18.940;2022-10-31T04:47:48;98824.63;;;10.33;100.00
65756;BME280;52489;47.502;18.940;2022-10-31T04:48:51;98822.34;;;10.21;100.00
65756;BME280;52489;47.502;18.940;2022-10-31T04:49:54;98827.41;;;10.07;100.00
65756;BME280;52489;47.502;18.940;2022-10-31T04:51:01;98825.31;;;10.04;100.00
65756;BME280;52489;47.502;18.940;2022-10-31T04:52:08;98830.00;;;10.07;100.00
65756;BME280;52489;47.502;18.940;2022-10-31T04:53:11;98832.63;;;10.07;100.00
65756;BME280;52489;47.502;18.940;2022-10-31T04:54:14;98831.56;;;10.08;100.00
65756;BME280;52489;47.502;18.940;2022-10-31T04:55:20;98836.53;;;10.10;100.00
65756;BME280;52489;47.502;18.940;2022-10-31T04:56:23;98833.34;;;10.18;100.00
65756;BME280;52489;47.502;18.940;2022-10-31T04:57:26;98826.53;;;10.17;100.00
65756;BME280;52489;47.502;18.940;2022-10-31T04:58:30;98827.63;;;10.11;100.00
65756;BME280;52489;47.502;18.940;2022-10-31T04:59:32;98828.59;;;10.25;100.00
65756;BME280;52489;47.502;18.940;2022-10-31T05:00:35;98827.28;;;10.22;100.00
65756;BME280;52489;47.502;18.940;2022-10-31T05:01:38;98833.81;;;10.30;100.00
65756;BME280;52489;47.502;18.940;2022-10-31T05:02:49;98824.66;;;10.22;100.00
65756;BME280;52489;47.502;18.940;2022-10-31T05:03:52;98822.69;;;10.04;100.00
65756;BME280;52489;47.502;18.940;2022-10-31T05:04:55;98826.97;;;9.90;100.00
65756;BME280;52489;47.502;18.940;2022-10-31T05:05:58;98829.03;;;9.93;100.00
65756;BME280;52489;47.502;18.940;2022-10-31T05:07:01;98827.56;;;9.76;100.00
65756;BME280;52489;47.502;18.940;2022-10-31T05:08:04;98832.00;;;9.81;100.00
65756;BME280;52489;47.502;18.940;2022-10-31T05:09:07;98825.22;;;9.70;100.00
65756;BME280;52489;47.502;18.940;2022-10-31T05:10:12;98833.59;;;9.72;100.00
65756;BME280;52489;47.502;18.940;2022-10-31T05:11:16;98834.44;;;9.67;100.00
65756;BME280;52489;47.502;18.940;2022-10-31T05:12:18;98831.28;;;9.70;100.00
65756;BME280;52489;47.502;18.940;2022-10-31T05:13:21;98825.97;;;9.80;100.00
65756;BME280;52489;47.502;18.940;2022-10-31T05:14:24;98824.91;;;9.87;100.00
65756;BME280;52489;47.502;18.940;2022-10-31T05:15:28;98827.69;;;10.00;100.00
65756;BME280;52489;47.502;18.940;2022-10-31T05:16:31;98827.41;;;10.07;100.00
65756;BME280;52489;47.502;18.940;2022-10-31T05:17:34;98833.97;;;9.99;100.00
65756;BME280;52489;47.502;18.940;2022-10-31T05:18:37;98835.56;;;9.95;100.00
65756;BME280;52489;47.502;18.940;2022-10-31T05:19:43;98832.09;;;10.05;100.00
65756;BME280;52489;47.502;18.940;2022-10-31T05:20:46;98850.53;;;9.90;100.00
65756;BME280;52489;47.502;18.940;2022-10-31T05:21:49;98839.84;;;9.81;100.00
65756;BME280;52489;47.502;18.940;2022-10-31T05:22:54;98831.12;;;9.91;100.00
65756;BME280;52489;47.502;18.940;2022-10-31T05:23:57;98810.78;;;9.83;100.00
65756;BME280;52489;47.502;18.940;2022-10-31T05:25:00;98814.44;;;9.82;100.00
65756;BME280;52489;47.502;18.940;2022-10-31T05:26:03;98817.13;;;9.76;100.00
65756;BME280;52489;47.502;18.940;2022-10-31T05:27:06;98824.53;;;9.59;100.00
65756;BME280;52489;47.502;18.940;2022-10-31T05:28:09;98816.38;;;9.66;100.00
65756;BME280;52489;47.502;18.940;2022-10-31T05:29:13;98812.97;;;9.70;100.00
65756;BME280;52489;47.502;18.940;2022-10-31T05:30:19;98816.16;;;9.57;100.00
65756;BME280;52489;47.502;18.940;2022-10-31T05:31:22;98819.53;;;9.57;100.00
65756;BME280;52489;47.502;18.940;2022-10-31T05:32:25;98823.44;;;9.65;100.00
65756;BME280;52489;47.502;18.940;2022-10-31T05:33:28;98826.50;;;9.83;100.00
65756;BME280;52489;47.502;18.940;2022-10-31T05:34:31;98843.50;;;9.85;100.00
65756;BME280;52489;47.502;18.940;2022-10-31T05:35:34;98839.28;;;9.89;100.00
65756;BME280;52489;47.502;18.940;2022-10-31T05:36:36;98844.53;;;9.84;100.00
65756;BME280;52489;47.502;18.940;2022-10-31T05:37:39;98848.50;;;9.76;100.00
65756;BME280;52489;47.502;18.940;2022-10-31T05:38:43;98836.97;;;9.77;100.00
65756;BME280;52489;47.502;18.940;2022-10-31T05:39:46;98836.13;;;9.92;100.00
65756;BME280;52489;47.502;18.940;2022-10-31T05:40:48;98837.09;;;10.01;100.00
65756;BME280;52489;47.502;18.940;2022-10-31T05:41:51;98837.66;;;9.93;100.00
65756;BME280;52489;47.502;18.940;2022-10-31T05:42:57;98842.84;;;10.09;100.00
65756;BME280;52489;47.502;18.940;2022-10-31T05:44:04;98839.16;;;10.10;100.00
65756;BME280;52489;47.502;18.940;2022-10-31T05:45:08;98844.41;;;10.05;100.00
65756;BME280;52489;47.502;18.940;2022-10-31T05:46:12;98841.34;;;9.97;100.00
65756;BME280;52489;47.502;18.940;2022-10-31T05:47:15;98853.13;;;9.90;100.00
65756;BME280;52489;47.502;18.940;2022-10-31T05:48:17;98847.88;;;9.95;100.00
65756;BME280;52489;47.502;18.940;2022-10-31T05:49:20;98838.62;;;10.13;100.00
65756;BME280;52489;47.502;18.940;2022-10-31T05:50:25;98840.22;;;10.09;100.00
65756;BME280;52489;47.502;18.940;2022-10-31T05:51:29;98836.84;;;10.03;100.00
65756;BME280;52489;47.502;18.940;2022-10-31T05:52:32;98839.97;;;10.05;100.00
65756;BME280;52489;47.502;18.940;2022-10-31T05:53:35;98842.78;;;10.14;100.00
65756;BME280;52489;47.502;18.940;2022-10-31T05:54:37;98841.16;;;10.23;100.00
65756;BME280;52489;47.502;18.940;2022-10-31T05:55:41;98846.16;;;10.19;100.00
65756;BME280;52489;47.502;18.940;2022-10-31T05:56:44;98830.00;;;10.07;100.00
65756;BME280;52489;47.502;18.940;2022-10-31T05:57:47;98828.47;;;10.01;100.00
65756;BME280;52489;47.502;18.940;2022-10-31T05:58:50;98832.75;;;9.87;100.00
65756;BME280;52489;47.502;18.940;2022-10-31T05:59:53;98838.25;;;9.85;100.00
65756;BME280;52489;47.502;18.940;2022-10-31T06:00:56;98837.09;;;10.07;100.00
65756;BME280;52489;47.502;18.940;2022-10-31T06:01:59;98839.41;;;10.13;100.00
65756;BME280;52489;47.502;18.940;2022-10-31T06:03:07;98838.59;;;10.18;100.00
65756;BME280;52489;47.502;18.940;2022-10-31T06:04:10;98839.59;;;10.27;100.00
65756;BME280;52489;47.502;18.940;2022-10-31T06:05:14;98842.56;;;10.10;100.00
65756;BME280;52489;47.502;18.940;2022-10-31T06:06:17;98844.28;;;10.25;100.00
65756;BME280;52489;47.502;18.940;2022-10-31T06:07:20;98854.75;;;10.25;100.00